Corinthiakos — A8UL2 — position and weather

sailwx.info

Track history (hours):
 
Tides and Currents Weather Stations Pressure Air Temp Water Temp Dewpoint Dewpoint Depression Visibility Wind Speed Wind Dir Waves Ship Positions

Corinthiakos

Last reported at 2015-Jan-28 15:33 UTC. Time now 2015-Jan-31 13:07 UTC.
Position N 01°17' E 104°17'.

Length 262 m; draft 7.9 m.

Type: Cargo ship. MMSI: 636014516.

Date/timePositionNaut miles runAvg speedWind from/ knotsBaromVisibWave heightAir tempDewpointWater temp
2015-Jan-28 15:33N 01°17' E 104°17'1211.7
2015-Jan-28 14:33N 01°15' E 104°06'1211.6
2015-Jan-28 13:33N 01°13' E 103°55'8 7.8
2015-Jan-28 12:33N 01°14' E 103°47'3 2.3
2015-Jan-28 11:09N 01°17' E 103°46'0 0.0
2015-Jan-28 10:33N 01°17' E 103°46'0 0.0
2015-Jan-28 09:33N 01°17' E 103°46'0 0.0
2015-Jan-28 08:30N 01°17' E 103°46'0 0.0
2015-Jan-28 07:33N 01°17' E 103°46'0 0.0
2015-Jan-28 06:33N 01°17' E 103°46'0 0.0
2015-Jan-28 05:33N 01°17' E 103°46'0 0.0
2015-Jan-28 04:33N 01°17' E 103°46'0 0.0
2015-Jan-28 03:33N 01°17' E 103°46'0 0.0
2015-Jan-28 02:33N 01°17' E 103°46'0 0.1
2015-Jan-28 01:33N 01°17' E 103°46'0 0.1
2015-Jan-28 00:33N 01°17' E 103°46'0 0.0
2015-Jan-27 23:33N 01°17' E 103°46'0 0.1
2015-Jan-27 22:33N 01°17' E 103°46'1 1.0
2015-Jan-27 21:33N 01°16' E 103°46'7 6.8
2015-Jan-27 20:28N 01°12' E 103°39'70 8.7
2015-Jan-27 12:25N 01°43' E 102°36'9 9.9
2015-Jan-27 11:30N 01°47' E 102°28'9 9.8
2015-Jan-27 10:33N 01°51' E 102°20'11 9.8
2015-Jan-27 09:26N 01°57' E 102°10'  
Track history (hours):
 
Tides and Currents Weather Stations Pressure Air Temp Water Temp Dewpoint Dewpoint Depression Visibility Wind Speed Wind Dir Waves Ship Positions

Corinthiakos

Last reported at 2015-Jan-28 15:33 UTC. Time now 2015-Jan-31 13:07 UTC.
Position N 01°17' E 104°17'.

Length 262 m; draft 7.9 m.

Type: Cargo ship. MMSI: 636014516.

Date/timePositionNaut miles runAvg speedWind from/ knotsBaromVisibWave heightAir tempDewpointWater temp
2015-Jan-28 15:33N 01°17' E 104°17'1211.7
2015-Jan-28 14:33N 01°15' E 104°06'1211.6
2015-Jan-28 13:33N 01°13' E 103°55'8 7.8
2015-Jan-28 12:33N 01°14' E 103°47'3 2.3
2015-Jan-28 11:09N 01°17' E 103°46'0 0.0
2015-Jan-28 10:33N 01°17' E 103°46'0 0.0
2015-Jan-28 09:33N 01°17' E 103°46'0 0.0
2015-Jan-28 08:30N 01°17' E 103°46'0 0.0
2015-Jan-28 07:33N 01°17' E 103°46'0 0.0
2015-Jan-28 06:33N 01°17' E 103°46'0 0.0
2015-Jan-28 05:33N 01°17' E 103°46'0 0.0
2015-Jan-28 04:33N 01°17' E 103°46'0 0.0
2015-Jan-28 03:33N 01°17' E 103°46'0 0.0
2015-Jan-28 02:33N 01°17' E 103°46'0 0.1
2015-Jan-28 01:33N 01°17' E 103°46'0 0.1
2015-Jan-28 00:33N 01°17' E 103°46'0 0.0
2015-Jan-27 23:33N 01°17' E 103°46'0 0.1
2015-Jan-27 22:33N 01°17' E 103°46'1 1.0
2015-Jan-27 21:33N 01°16' E 103°46'7 6.8
2015-Jan-27 20:28N 01°12' E 103°39'70 8.7
2015-Jan-27 12:25N 01°43' E 102°36'9 9.9
2015-Jan-27 11:30N 01°47' E 102°28'9 9.8
2015-Jan-27 10:33N 01°51' E 102°20'11 9.8
2015-Jan-27 09:26N 01°57' E 102°10'  

Dump ship's entire track history